sensor_id;sensor_type;location;lat;lon;timestamp;P1;durP1;ratioP1;P2;durP2;ratioP2
29240;SDS011;16268;49.880;8.648;2022-10-29T00:01:18;16.40;;;5.07;;
29240;SDS011;16268;49.880;8.648;2022-10-29T00:03:43;12.43;;;4.88;;
29240;SDS011;16268;49.880;8.648;2022-10-29T00:06:11;14.15;;;5.00;;
29240;SDS011;16268;49.880;8.648;2022-10-29T00:08:38;13.95;;;4.47;;
29240;SDS011;16268;49.880;8.648;2022-10-29T00:11:15;12.65;;;4.57;;
29240;SDS011;16268;49.880;8.648;2022-10-29T00:13:43;13.13;;;4.50;;
29240;SDS011;16268;49.880;8.648;2022-10-29T00:16:13;16.27;;;4.50;;
29240;SDS011;16268;49.880;8.648;2022-10-29T00:18:42;17.55;;;4.97;;
29240;SDS011;16268;49.880;8.648;2022-10-29T00:21:10;11.60;;;4.72;;
29240;SDS011;16268;49.880;8.648;2022-10-29T00:26:03;17.13;;;4.55;;
29240;SDS011;16268;49.880;8.648;2022-10-29T00:28:30;16.15;;;4.95;;
29240;SDS011;16268;49.880;8.648;2022-10-29T00:30:56;16.63;;;4.60;;
29240;SDS011;16268;49.880;8.648;2022-10-29T00:33:25;15.30;;;4.88;;
29240;SDS011;16268;49.880;8.648;2022-10-29T00:36:01;11.70;;;4.32;;
29240;SDS011;16268;49.880;8.648;2022-10-29T00:38:29;12.55;;;4.68;;
29240;SDS011;16268;49.880;8.648;2022-10-29T00:40:56;18.52;;;5.05;;
29240;SDS011;16268;49.880;8.648;2022-10-29T00:43:22;17.38;;;5.05;;
29240;SDS011;16268;49.880;8.648;2022-10-29T00:48:23;14.35;;;4.72;;
29240;SDS011;16268;49.880;8.648;2022-10-29T00:50:51;16.90;;;4.70;;
29240;SDS011;16268;49.880;8.648;2022-10-29T00:53:19;12.65;;;4.80;;
29240;SDS011;16268;49.880;8.648;2022-10-29T00:55:48;12.32;;;4.50;;
29240;SDS011;16268;49.880;8.648;2022-10-29T00:58:14;14.50;;;4.50;;
29240;SDS011;16268;49.880;8.648;2022-10-29T01:00:39;11.18;;;4.50;;
29240;SDS011;16268;49.880;8.648;2022-10-29T01:03:06;12.65;;;4.45;;
29240;SDS011;16268;49.880;8.648;2022-10-29T01:05:32;13.77;;;4.63;;
29240;SDS011;16268;49.880;8.648;2022-10-29T01:07:59;13.95;;;4.25;;
29240;SDS011;16268;49.880;8.648;2022-10-29T01:13:45;14.65;;;5.10;;
29240;SDS011;16268;49.880;8.648;2022-10-29T01:16:41;13.02;;;4.63;;
29240;SDS011;16268;49.880;8.648;2022-10-29T01:22:34;13.00;;;4.47;;
29240;SDS011;16268;49.880;8.648;2022-10-29T01:32:50;18.13;;;4.75;;
29240;SDS011;16268;49.880;8.648;2022-10-29T01:38:17;16.75;;;4.70;;
29240;SDS011;16268;49.880;8.648;2022-10-29T01:41:06;17.38;;;5.72;;
29240;SDS011;16268;49.880;8.648;2022-10-29T01:43:40;15.18;;;4.57;;
29240;SDS011;16268;49.880;8.648;2022-10-29T01:46:18;11.63;;;4.45;;
29240;SDS011;16268;49.880;8.648;2022-10-29T01:48:52;15.88;;;4.50;;
29240;SDS011;16268;49.880;8.648;2022-10-29T01:51:29;13.65;;;4.75;;
29240;SDS011;16268;49.880;8.648;2022-10-29T01:53:58;15.07;;;4.40;;
29240;SDS011;16268;49.880;8.648;2022-10-29T01:56:25;13.07;;;4.65;;
29240;SDS011;16268;49.880;8.648;2022-10-29T01:58:51;16.38;;;4.55;;
29240;SDS011;16268;49.880;8.648;2022-10-29T02:09:15;13.02;;;4.70;;
29240;SDS011;16268;49.880;8.648;2022-10-29T02:12:14;17.27;;;5.28;;
29240;SDS011;16268;49.880;8.648;2022-10-29T02:15:08;13.50;;;4.75;;
29240;SDS011;16268;49.880;8.648;2022-10-29T02:17:41;13.35;;;4.97;;
29240;SDS011;16268;49.880;8.648;2022-10-29T02:20:08;18.52;;;5.57;;
29240;SDS011;16268;49.880;8.648;2022-10-29T02:22:36;16.88;;;5.22;;
29240;SDS011;16268;49.880;8.648;2022-10-29T02:25:01;15.45;;;4.78;;
29240;SDS011;16268;49.880;8.648;2022-10-29T02:27:29;14.98;;;4.78;;
29240;SDS011;16268;49.880;8.648;2022-10-29T02:29:54;13.43;;;5.35;;
29240;SDS011;16268;49.880;8.648;2022-10-29T02:32:20;14.68;;;5.47;;
29240;SDS011;16268;49.880;8.648;2022-10-29T02:34:45;16.77;;;5.38;;
29240;SDS011;16268;49.880;8.648;2022-10-29T02:37:11;12.75;;;5.18;;
29240;SDS011;16268;49.880;8.648;2022-10-29T02:39:37;12.43;;;4.85;;
29240;SDS011;16268;49.880;8.648;2022-10-29T02:42:02;15.77;;;4.93;;
29240;SDS011;16268;49.880;8.648;2022-10-29T02:44:28;14.35;;;5.70;;
29240;SDS011;16268;49.880;8.648;2022-10-29T02:46:53;12.48;;;4.90;;
29240;SDS011;16268;49.880;8.648;2022-10-29T02:49:19;14.25;;;5.03;;
29240;SDS011;16268;49.880;8.648;2022-10-29T02:51:45;16.02;;;5.28;;
29240;SDS011;16268;49.880;8.648;2022-10-29T02:54:10;14.65;;;5.47;;
29240;SDS011;16268;49.880;8.648;2022-10-29T02:56:36;15.13;;;5.25;;
29240;SDS011;16268;49.880;8.648;2022-10-29T02:59:01;16.67;;;5.55;;
29240;SDS011;16268;49.880;8.648;2022-10-29T03:01:27;18.45;;;5.38;;
29240;SDS011;16268;49.880;8.648;2022-10-29T03:03:53;10.68;;;5.10;;
29240;SDS011;16268;49.880;8.648;2022-10-29T03:06:18;15.15;;;5.38;;
29240;SDS011;16268;49.880;8.648;2022-10-29T03:08:45;14.32;;;5.13;;
29240;SDS011;16268;49.880;8.648;2022-10-29T03:11:11;14.18;;;5.30;;
29240;SDS011;16268;49.880;8.648;2022-10-29T03:13:37;15.10;;;5.63;;
29240;SDS011;16268;49.880;8.648;2022-10-29T03:16:03;19.90;;;6.22;;
29240;SDS011;16268;49.880;8.648;2022-10-29T03:18:29;19.60;;;5.45;;
29240;SDS011;16268;49.880;8.648;2022-10-29T03:20:55;17.50;;;5.72;;
29240;SDS011;16268;49.880;8.648;2022-10-29T03:23:21;16.30;;;5.82;;
29240;SDS011;16268;49.880;8.648;2022-10-29T03:25:50;14.15;;;6.15;;
29240;SDS011;16268;49.880;8.648;2022-10-29T03:28:17;21.50;;;7.70;;
29240;SDS011;16268;49.880;8.648;2022-10-29T03:30:43;16.85;;;7.25;;
29240;SDS011;16268;49.880;8.648;2022-10-29T03:33:09;17.05;;;6.55;;
29240;SDS011;16268;49.880;8.648;2022-10-29T03:35:34;17.65;;;7.15;;
29240;SDS011;16268;49.880;8.648;2022-10-29T03:38:00;16.02;;;6.38;;
29240;SDS011;16268;49.880;8.648;2022-10-29T03:40:25;18.60;;;6.40;;
29240;SDS011;16268;49.880;8.648;2022-10-29T03:42:51;14.32;;;6.60;;
29240;SDS011;16268;49.880;8.648;2022-10-29T03:45:16;18.27;;;5.97;;
29240;SDS011;16268;49.880;8.648;2022-10-29T03:47:42;14.07;;;6.20;;
29240;SDS011;16268;49.880;8.648;2022-10-29T03:50:08;12.65;;;6.13;;
29240;SDS011;16268;49.880;8.648;2022-10-29T03:52:33;13.85;;;6.00;;
29240;SDS011;16268;49.880;8.648;2022-10-29T03:54:59;19.45;;;6.40;;
29240;SDS011;16268;49.880;8.648;2022-10-29T03:57:25;14.45;;;5.97;;
29240;SDS011;16268;49.880;8.648;2022-10-29T03:59:50;15.95;;;6.63;;
29240;SDS011;16268;49.880;8.648;2022-10-29T04:02:16;14.15;;;6.18;;
29240;SDS011;16268;49.880;8.648;2022-10-29T04:04:41;16.90;;;6.90;;
29240;SDS011;16268;49.880;8.648;2022-10-29T04:07:07;14.23;;;6.30;;
29240;SDS011;16268;49.880;8.648;2022-10-29T04:09:32;17.10;;;6.05;;
29240;SDS011;16268;49.880;8.648;2022-10-29T04:11:58;12.73;;;6.22;;
29240;SDS011;16268;49.880;8.648;2022-10-29T04:14:25;18.02;;;6.60;;
29240;SDS011;16268;49.880;8.648;2022-10-29T04:16:50;15.15;;;5.70;;
29240;SDS011;16268;49.880;8.648;2022-10-29T04:19:16;20.23;;;6.28;;
29240;SDS011;16268;49.880;8.648;2022-10-29T04:21:41;15.82;;;6.15;;
29240;SDS011;16268;49.880;8.648;2022-10-29T04:24:07;13.20;;;6.03;;
29240;SDS011;16268;49.880;8.648;2022-10-29T04:26:32;15.30;;;5.75;;
29240;SDS011;16268;49.880;8.648;2022-10-29T04:28:58;14.07;;;6.18;;
29240;SDS011;16268;49.880;8.648;2022-10-29T04:31:24;15.30;;;5.97;;
29240;SDS011;16268;49.880;8.648;2022-10-29T04:33:51;15.05;;;6.03;;
29240;SDS011;16268;49.880;8.648;2022-10-29T04:36:17;14.48;;;6.30;;
29240;SDS011;16268;49.880;8.648;2022-10-29T04:38:42;14.77;;;6.70;;
29240;SDS011;16268;49.880;8.648;2022-10-29T04:41:08;17.67;;;6.45;;
29240;SDS011;16268;49.880;8.648;2022-10-29T04:43:33;19.55;;;6.57;;
29240;SDS011;16268;49.880;8.648;2022-10-29T04:45:59;13.65;;;5.72;;
29240;SDS011;16268;49.880;8.648;2022-10-29T04:48:25;15.15;;;6.50;;
29240;SDS011;16268;49.880;8.648;2022-10-29T04:50:51;19.35;;;6.25;;
29240;SDS011;16268;49.880;8.648;2022-10-29T04:53:17;14.70;;;6.22;;
29240;SDS011;16268;49.880;8.648;2022-10-29T04:55:44;17.52;;;6.28;;
29240;SDS011;16268;49.880;8.648;2022-10-29T04:58:19;13.00;;;6.18;;
29240;SDS011;16268;49.880;8.648;2022-10-29T05:00:45;22.02;;;5.75;;
29240;SDS011;16268;49.880;8.648;2022-10-29T05:03:10;16.48;;;6.40;;
29240;SDS011;16268;49.880;8.648;2022-10-29T05:05:37;15.43;;;5.68;;
29240;SDS011;16268;49.880;8.648;2022-10-29T05:08:04;17.55;;;6.40;;
29240;SDS011;16268;49.880;8.648;2022-10-29T05:10:31;15.43;;;6.35;;
29240;SDS011;16268;49.880;8.648;2022-10-29T05:12:59;13.02;;;5.70;;
29240;SDS011;16268;49.880;8.648;2022-10-29T05:15:26;18.52;;;5.68;;
29240;SDS011;16268;49.880;8.648;2022-10-29T05:17:53;16.83;;;6.05;;
29240;SDS011;16268;49.880;8.648;2022-10-29T05:20:19;16.40;;;5.70;;
29240;SDS011;16268;49.880;8.648;2022-10-29T05:22:45;14.45;;;5.55;;
29240;SDS011;16268;49.880;8.648;2022-10-29T05:25:10;15.57;;;5.28;;
29240;SDS011;16268;49.880;8.648;2022-10-29T05:27:36;15.60;;;5.35;;
29240;SDS011;16268;49.880;8.648;2022-10-29T05:30:01;15.02;;;5.45;;
29240;SDS011;16268;49.880;8.648;2022-10-29T05:32:27;16.70;;;6.43;;
29240;SDS011;16268;49.880;8.648;2022-10-29T05:34:53;14.32;;;5.50;;
29240;SDS011;16268;49.880;8.648;2022-10-29T05:37:19;14.82;;;5.68;;
29240;SDS011;16268;49.880;8.648;2022-10-29T05:39:44;11.35;;;5.85;;
29240;SDS011;16268;49.880;8.648;2022-10-29T05:42:10;18.95;;;5.97;;
29240;SDS011;16268;49.880;8.648;2022-10-29T05:44:35;14.75;;;5.80;;
29240;SDS011;16268;49.880;8.648;2022-10-29T05:47:01;11.77;;;5.22;;
29240;SDS011;16268;49.880;8.648;2022-10-29T05:49:27;12.82;;;5.95;;
29240;SDS011;16268;49.880;8.648;2022-10-29T05:51:53;12.45;;;5.50;;
29240;SDS011;16268;49.880;8.648;2022-10-29T05:54:18;16.30;;;6.10;;
29240;SDS011;16268;49.880;8.648;2022-10-29T05:56:44;18.27;;;5.93;;
29240;SDS011;16268;49.880;8.648;2022-10-29T05:59:09;17.15;;;6.10;;
29240;SDS011;16268;49.880;8.648;2022-10-29T06:01:35;18.00;;;5.95;;
29240;SDS011;16268;49.880;8.648;2022-10-29T06:04:00;15.68;;;6.43;;
29240;SDS011;16268;49.880;8.648;2022-10-29T06:06:26;14.45;;;6.28;;
29240;SDS011;16268;49.880;8.648;2022-10-29T06:08:52;13.95;;;5.82;;
29240;SDS011;16268;49.880;8.648;2022-10-29T06:11:17;16.63;;;5.93;;
29240;SDS011;16268;49.880;8.648;2022-10-29T06:13:43;17.75;;;6.43;;
29240;SDS011;16268;49.880;8.648;2022-10-29T06:16:09;12.52;;;5.60;;
29240;SDS011;16268;49.880;8.648;2022-10-29T06:18:34;17.13;;;6.35;;
29240;SDS011;16268;49.880;8.648;2022-10-29T06:21:00;15.85;;;6.95;;
29240;SDS011;16268;49.880;8.648;2022-10-29T06:23:26;15.52;;;5.60;;
29240;SDS011;16268;49.880;8.648;2022-10-29T06:25:52;15.43;;;5.95;;
29240;SDS011;16268;49.880;8.648;2022-10-29T06:28:18;18.33;;;5.95;;
29240;SDS011;16268;49.880;8.648;2022-10-29T06:30:47;14.82;;;6.13;;
29240;SDS011;16268;49.880;8.648;2022-10-29T06:35:39;10.30;;;4.80;;
29240;SDS011;16268;49.880;8.648;2022-10-29T06:38:05;12.00;;;5.50;;
29240;SDS011;16268;49.880;8.648;2022-10-29T06:40:31;17.90;;;6.25;;
29240;SDS011;16268;49.880;8.648;2022-10-29T06:42:57;21.02;;;6.22;;
29240;SDS011;16268;49.880;8.648;2022-10-29T06:45:23;16.10;;;5.88;;
29240;SDS011;16268;49.880;8.648;2022-10-29T06:47:49;17.63;;;6.53;;
29240;SDS011;16268;49.880;8.648;2022-10-29T06:50:15;14.60;;;6.18;;
29240;SDS011;16268;49.880;8.648;2022-10-29T06:52:40;13.88;;;6.45;;
29240;SDS011;16268;49.880;8.648;2022-10-29T06:55:06;14.75;;;6.18;;
29240;SDS011;16268;49.880;8.648;2022-10-29T06:57:32;19.00;;;6.03;;
29240;SDS011;16268;49.880;8.648;2022-10-29T06:59:58;13.68;;;4.97;;
29240;SDS011;16268;49.880;8.648;2022-10-29T07:02:23;15.85;;;6.10;;
29240;SDS011;16268;49.880;8.648;2022-10-29T07:04:49;16.73;;;5.75;;
29240;SDS011;16268;49.880;8.648;2022-10-29T07:07:15;14.93;;;5.82;;
29240;SDS011;16268;49.880;8.648;2022-10-29T07:09:41;17.20;;;5.90;;
29240;SDS011;16268;49.880;8.648;2022-10-29T07:12:09;17.80;;;7.15;;
29240;SDS011;16268;49.880;8.648;2022-10-29T07:14:35;15.65;;;6.10;;
29240;SDS011;16268;49.880;8.648;2022-10-29T07:17:01;16.38;;;6.20;;
29240;SDS011;16268;49.880;8.648;2022-10-29T07:19:27;16.65;;;6.20;;
29240;SDS011;16268;49.880;8.648;2022-10-29T07:21:52;16.50;;;5.60;;
29240;SDS011;16268;49.880;8.648;2022-10-29T07:24:18;13.25;;;5.88;;
29240;SDS011;16268;49.880;8.648;2022-10-29T07:26:43;14.25;;;5.78;;
29240;SDS011;16268;49.880;8.648;2022-10-29T07:29:09;13.63;;;5.90;;
29240;SDS011;16268;49.880;8.648;2022-10-29T07:31:35;14.88;;;6.50;;
29240;SDS011;16268;49.880;8.648;2022-10-29T07:34:00;15.98;;;6.82;;
29240;SDS011;16268;49.880;8.648;2022-10-29T07:36:28;17.73;;;6.53;;
29240;SDS011;16268;49.880;8.648;2022-10-29T07:38:55;15.40;;;6.68;;
29240;SDS011;16268;49.880;8.648;2022-10-29T07:41:20;18.17;;;6.60;;
29240;SDS011;16268;49.880;8.648;2022-10-29T07:43:46;16.67;;;6.70;;
29240;SDS011;16268;49.880;8.648;2022-10-29T07:46:12;15.07;;;6.55;;
29240;SDS011;16268;49.880;8.648;2022-10-29T07:48:40;15.05;;;6.68;;
29240;SDS011;16268;49.880;8.648;2022-10-29T07:51:05;19.17;;;7.10;;
29240;SDS011;16268;49.880;8.648;2022-10-29T07:53:31;14.68;;;6.70;;
29240;SDS011;16268;49.880;8.648;2022-10-29T07:55:57;17.38;;;6.15;;
29240;SDS011;16268;49.880;8.648;2022-10-29T07:58:23;16.23;;;6.40;;
29240;SDS011;16268;49.880;8.648;2022-10-29T08:00:49;14.43;;;6.35;;
29240;SDS011;16268;49.880;8.648;2022-10-29T08:03:15;14.43;;;6.30;;
29240;SDS011;16268;49.880;8.648;2022-10-29T08:05:41;15.43;;;6.55;;
29240;SDS011;16268;49.880;8.648;2022-10-29T08:08:07;16.17;;;6.20;;
29240;SDS011;16268;49.880;8.648;2022-10-29T08:10:33;17.50;;;6.60;;
29240;SDS011;16268;49.880;8.648;2022-10-29T08:13:00;12.85;;;5.82;;
29240;SDS011;16268;49.880;8.648;2022-10-29T08:15:27;13.75;;;6.10;;
29240;SDS011;16268;49.880;8.648;2022-10-29T08:17:54;17.90;;;6.88;;
29240;SDS011;16268;49.880;8.648;2022-10-29T08:20:21;13.32;;;5.78;;
29240;SDS011;16268;49.880;8.648;2022-10-29T08:22:48;15.05;;;6.28;;
29240;SDS011;16268;49.880;8.648;2022-10-29T08:25:14;16.20;;;5.90;;
29240;SDS011;16268;49.880;8.648;2022-10-29T08:27:41;13.35;;;6.40;;
29240;SDS011;16268;49.880;8.648;2022-10-29T08:30:07;17.17;;;6.40;;
29240;SDS011;16268;49.880;8.648;2022-10-29T08:32:35;13.75;;;5.90;;
29240;SDS011;16268;49.880;8.648;2022-10-29T08:35:01;17.45;;;6.07;;
29240;SDS011;16268;49.880;8.648;2022-10-29T08:37:27;18.05;;;5.75;;
29240;SDS011;16268;49.880;8.648;2022-10-29T08:39:53;18.75;;;6.88;;
29240;SDS011;16268;49.880;8.648;2022-10-29T08:42:32;11.85;;;5.80;;
29240;SDS011;16268;49.880;8.648;2022-10-29T08:45:22;15.50;;;6.22;;
29240;SDS011;16268;49.880;8.648;2022-10-29T08:48:10;19.63;;;6.35;;
29240;SDS011;16268;49.880;8.648;2022-10-29T08:50:59;13.20;;;5.65;;
29240;SDS011;16268;49.880;8.648;2022-10-29T08:53:42;12.68;;;6.18;;
29240;SDS011;16268;49.880;8.648;2022-10-29T08:56:21;16.92;;;5.85;;
29240;SDS011;16268;49.880;8.648;2022-10-29T08:58:59;14.00;;;5.20;;
29240;SDS011;16268;49.880;8.648;2022-10-29T09:01:42;15.65;;;6.05;;
29240;SDS011;16268;49.880;8.648;2022-10-29T09:07:17;14.45;;;6.43;;
29240;SDS011;16268;49.880;8.648;2022-10-29T09:09:58;11.02;;;5.88;;
29240;SDS011;16268;49.880;8.648;2022-10-29T09:15:23;17.55;;;6.15;;
29240;SDS011;16268;49.880;8.648;2022-10-29T09:34:16;14.60;;;6.18;;
29240;SDS011;16268;49.880;8.648;2022-10-29T09:36:55;18.65;;;6.65;;
29240;SDS011;16268;49.880;8.648;2022-10-29T09:39:32;13.18;;;5.30;;
29240;SDS011;16268;49.880;8.648;2022-10-29T09:42:01;12.52;;;5.45;;
29240;SDS011;16268;49.880;8.648;2022-10-29T09:44:56;16.80;;;6.30;;
29240;SDS011;16268;49.880;8.648;2022-10-29T09:47:30;14.13;;;5.95;;
29240;SDS011;16268;49.880;8.648;2022-10-29T09:52:39;17.05;;;6.20;;
29240;SDS011;16268;49.880;8.648;2022-10-29T09:55:06;14.30;;;5.63;;
29240;SDS011;16268;49.880;8.648;2022-10-29T09:57:40;14.25;;;5.55;;
29240;SDS011;16268;49.880;8.648;2022-10-29T10:00:14;12.98;;;5.70;;
29240;SDS011;16268;49.880;8.648;2022-10-29T10:02:42;13.48;;;5.43;;
29240;SDS011;16268;49.880;8.648;2022-10-29T10:07:40;11.07;;;5.43;;
29240;SDS011;16268;49.880;8.648;2022-10-29T10:10:48;16.85;;;5.43;;
29240;SDS011;16268;49.880;8.648;2022-10-29T10:13:18;14.80;;;5.45;;
29240;SDS011;16268;49.880;8.648;2022-10-29T10:15:50;13.35;;;5.20;;
29240;SDS011;16268;49.880;8.648;2022-10-29T10:18:40;18.83;;;5.65;;
29240;SDS011;16268;49.880;8.648;2022-10-29T10:21:08;16.80;;;5.65;;
29240;SDS011;16268;49.880;8.648;2022-10-29T10:23:40;17.33;;;5.40;;
29240;SDS011;16268;49.880;8.648;2022-10-29T10:26:32;13.43;;;5.25;;
29240;SDS011;16268;49.880;8.648;2022-10-29T10:29:04;15.27;;;5.50;;
29240;SDS011;16268;49.880;8.648;2022-10-29T10:31:38;13.60;;;4.30;;
29240;SDS011;16268;49.880;8.648;2022-10-29T10:34:24;15.43;;;4.80;;
29240;SDS011;16268;49.880;8.648;2022-10-29T10:37:17;12.25;;;4.35;;
29240;SDS011;16268;49.880;8.648;2022-10-29T10:44:52;11.73;;;4.43;;
29240;SDS011;16268;49.880;8.648;2022-10-29T10:47:26;13.77;;;4.22;;
29240;SDS011;16268;49.880;8.648;2022-10-29T10:53:14;11.02;;;4.88;;
29240;SDS011;16268;49.880;8.648;2022-10-29T10:55:46;14.43;;;4.50;;
29240;SDS011;16268;49.880;8.648;2022-10-29T10:58:28;8.07;;;3.83;;
29240;SDS011;16268;49.880;8.648;2022-10-29T11:01:04;11.40;;;4.55;;
29240;SDS011;16268;49.880;8.648;2022-10-29T11:03:34;11.15;;;4.35;;
29240;SDS011;16268;49.880;8.648;2022-10-29T11:06:19;13.32;;;4.75;;
29240;SDS011;16268;49.880;8.648;2022-10-29T11:12:33;12.07;;;4.40;;
29240;SDS011;16268;49.880;8.648;2022-10-29T11:14:59;11.85;;;4.50;;
29240;SDS011;16268;49.880;8.648;2022-10-29T11:17:49;16.33;;;5.25;;
29240;SDS011;16268;49.880;8.648;2022-10-29T11:20:28;14.32;;;5.07;;
29240;SDS011;16268;49.880;8.648;2022-10-29T11:25:39;9.60;;;4.47;;
29240;SDS011;16268;49.880;8.648;2022-10-29T11:30:47;10.68;;;4.22;;
29240;SDS011;16268;49.880;8.648;2022-10-29T11:38:39;12.80;;;5.00;;
29240;SDS011;16268;49.880;8.648;2022-10-29T11:43:47;15.00;;;4.95;;
29240;SDS011;16268;49.880;8.648;2022-10-29T11:51:50;12.95;;;4.80;;
29240;SDS011;16268;49.880;8.648;2022-10-29T12:00:13;14.43;;;4.85;;
29240;SDS011;16268;49.880;8.648;2022-10-29T12:13:49;13.95;;;5.53;;
29240;SDS011;16268;49.880;8.648;2022-10-29T12:16:29;11.27;;;4.63;;
29240;SDS011;16268;49.880;8.648;2022-10-29T12:34:16;14.30;;;5.22;;
29240;SDS011;16268;49.880;8.648;2022-10-29T12:39:47;16.85;;;5.28;;
29240;SDS011;16268;49.880;8.648;2022-10-29T12:42:26;15.60;;;6.68;;
29240;SDS011;16268;49.880;8.648;2022-10-29T12:48:01;24.10;;;9.60;;
29240;SDS011;16268;49.880;8.648;2022-10-29T12:56:11;21.90;;;9.52;;
29240;SDS011;16268;49.880;8.648;2022-10-29T12:58:49;25.50;;;11.00;;
29240;SDS011;16268;49.880;8.648;2022-10-29T13:09:20;25.63;;;9.95;;
29240;SDS011;16268;49.880;8.648;2022-10-29T13:15:01;20.67;;;8.15;;
29240;SDS011;16268;49.880;8.648;2022-10-29T13:17:33;16.70;;;7.30;;
29240;SDS011;16268;49.880;8.648;2022-10-29T13:20:06;16.95;;;6.70;;
29240;SDS011;16268;49.880;8.648;2022-10-29T13:22:50;13.15;;;6.30;;
29240;SDS011;16268;49.880;8.648;2022-10-29T13:25:26;12.02;;;6.88;;
29240;SDS011;16268;49.880;8.648;2022-10-29T13:27:53;17.55;;;6.97;;
29240;SDS011;16268;49.880;8.648;2022-10-29T13:30:23;15.55;;;7.47;;
29240;SDS011;16268;49.880;8.648;2022-10-29T13:32:53;20.10;;;7.75;;
29240;SDS011;16268;49.880;8.648;2022-10-29T13:42:52;17.33;;;6.93;;
29240;SDS011;16268;49.880;8.648;2022-10-29T13:45:38;16.50;;;6.60;;
29240;SDS011;16268;49.880;8.648;2022-10-29T13:48:15;17.85;;;7.10;;
29240;SDS011;16268;49.880;8.648;2022-10-29T13:50:49;18.58;;;8.05;;
29240;SDS011;16268;49.880;8.648;2022-10-29T13:53:19;18.52;;;8.93;;
29240;SDS011;16268;49.880;8.648;2022-10-29T13:55:49;16.58;;;7.25;;
29240;SDS011;16268;49.880;8.648;2022-10-29T13:58:18;12.55;;;6.60;;
29240;SDS011;16268;49.880;8.648;2022-10-29T14:00:53;15.65;;;7.57;;
29240;SDS011;16268;49.880;8.648;2022-10-29T14:03:32;19.05;;;7.43;;
29240;SDS011;16268;49.880;8.648;2022-10-29T14:06:08;18.73;;;9.45;;
29240;SDS011;16268;49.880;8.648;2022-10-29T14:08:43;20.25;;;7.30;;
29240;SDS011;16268;49.880;8.648;2022-10-29T14:11:20;16.02;;;7.22;;
29240;SDS011;16268;49.880;8.648;2022-10-29T14:13:48;14.60;;;6.40;;
29240;SDS011;16268;49.880;8.648;2022-10-29T14:16:16;16.05;;;6.97;;
29240;SDS011;16268;49.880;8.648;2022-10-29T14:18:48;19.35;;;9.27;;
29240;SDS011;16268;49.880;8.648;2022-10-29T14:21:15;17.02;;;9.15;;
29240;SDS011;16268;49.880;8.648;2022-10-29T14:24:00;22.17;;;7.15;;
29240;SDS011;16268;49.880;8.648;2022-10-29T14:26:28;15.32;;;6.78;;
29240;SDS011;16268;49.880;8.648;2022-10-29T14:28:55;16.63;;;6.95;;
29240;SDS011;16268;49.880;8.648;2022-10-29T14:31:45;18.75;;;6.53;;
29240;SDS011;16268;49.880;8.648;2022-10-29T14:34:20;15.50;;;6.43;;
29240;SDS011;16268;49.880;8.648;2022-10-29T14:36:49;20.40;;;7.47;;
29240;SDS011;16268;49.880;8.648;2022-10-29T14:41:58;12.35;;;6.15;;
29240;SDS011;16268;49.880;8.648;2022-10-29T14:44:30;15.80;;;6.70;;
29240;SDS011;16268;49.880;8.648;2022-10-29T14:47:00;15.80;;;7.32;;
29240;SDS011;16268;49.880;8.648;2022-10-29T14:49:31;16.77;;;6.97;;
29240;SDS011;16268;49.880;8.648;2022-10-29T14:52:03;21.05;;;8.40;;
29240;SDS011;16268;49.880;8.648;2022-10-29T14:57:22;16.30;;;7.63;;
29240;SDS011;16268;49.880;8.648;2022-10-29T14:59:52;16.80;;;7.15;;
29240;SDS011;16268;49.880;8.648;2022-10-29T15:02:34;16.95;;;7.18;;
29240;SDS011;16268;49.880;8.648;2022-10-29T15:05:02;19.70;;;6.90;;
29240;SDS011;16268;49.880;8.648;2022-10-29T15:07:30;14.10;;;6.50;;
29240;SDS011;16268;49.880;8.648;2022-10-29T15:12:37;14.85;;;6.40;;
29240;SDS011;16268;49.880;8.648;2022-10-29T15:15:07;16.05;;;7.47;;
29240;SDS011;16268;49.880;8.648;2022-10-29T15:20:20;14.60;;;6.57;;
29240;SDS011;16268;49.880;8.648;2022-10-29T15:22:51;17.20;;;8.10;;
29240;SDS011;16268;49.880;8.648;2022-10-29T15:25:25;23.20;;;8.25;;
29240;SDS011;16268;49.880;8.648;2022-10-29T15:28:01;17.00;;;7.75;;
29240;SDS011;16268;49.880;8.648;2022-10-29T15:30:37;15.98;;;7.60;;
29240;SDS011;16268;49.880;8.648;2022-10-29T15:33:03;18.85;;;7.95;;
29240;SDS011;16268;49.880;8.648;2022-10-29T15:35:32;17.10;;;7.35;;
29240;SDS011;16268;49.880;8.648;2022-10-29T15:38:00;16.25;;;7.20;;
29240;SDS011;16268;49.880;8.648;2022-10-29T15:40:26;17.13;;;8.48;;
29240;SDS011;16268;49.880;8.648;2022-10-29T15:42:52;15.15;;;8.10;;
29240;SDS011;16268;49.880;8.648;2022-10-29T15:45:22;20.13;;;7.88;;
29240;SDS011;16268;49.880;8.648;2022-10-29T15:47:56;17.15;;;8.38;;
29240;SDS011;16268;49.880;8.648;2022-10-29T15:50:42;21.33;;;8.60;;
29240;SDS011;16268;49.880;8.648;2022-10-29T15:53:10;18.13;;;8.18;;
29240;SDS011;16268;49.880;8.648;2022-10-29T15:55:39;19.02;;;8.32;;
29240;SDS011;16268;49.880;8.648;2022-10-29T15:58:05;16.58;;;8.57;;
29240;SDS011;16268;49.880;8.648;2022-10-29T16:00:35;24.95;;;11.63;;
29240;SDS011;16268;49.880;8.648;2022-10-29T16:03:08;18.20;;;9.20;;
29240;SDS011;16268;49.880;8.648;2022-10-29T16:05:40;20.60;;;8.20;;
29240;SDS011;16268;49.880;8.648;2022-10-29T16:08:08;18.17;;;8.65;;
29240;SDS011;16268;49.880;8.648;2022-10-29T16:10:55;19.80;;;9.43;;
29240;SDS011;16268;49.880;8.648;2022-10-29T16:13:22;20.95;;;8.88;;
29240;SDS011;16268;49.880;8.648;2022-10-29T16:15:49;20.50;;;11.18;;
29240;SDS011;16268;49.880;8.648;2022-10-29T16:18:14;25.33;;;11.48;;
29240;SDS011;16268;49.880;8.648;2022-10-29T16:20:40;18.98;;;10.10;;
29240;SDS011;16268;49.880;8.648;2022-10-29T16:23:09;23.13;;;9.13;;
29240;SDS011;16268;49.880;8.648;2022-10-29T16:25:35;19.27;;;8.60;;
29240;SDS011;16268;49.880;8.648;2022-10-29T16:28:02;18.13;;;8.60;;
29240;SDS011;16268;49.880;8.648;2022-10-29T16:30:27;21.73;;;9.55;;
29240;SDS011;16268;49.880;8.648;2022-10-29T16:32:53;22.25;;;10.88;;
29240;SDS011;16268;49.880;8.648;2022-10-29T16:35:23;19.52;;;9.75;;
29240;SDS011;16268;49.880;8.648;2022-10-29T16:37:50;18.08;;;9.20;;
29240;SDS011;16268;49.880;8.648;2022-10-29T16:40:17;17.80;;;8.90;;
29240;SDS011;16268;49.880;8.648;2022-10-29T16:42:43;18.38;;;8.93;;
29240;SDS011;16268;49.880;8.648;2022-10-29T16:45:11;19.48;;;8.85;;
29240;SDS011;16268;49.880;8.648;2022-10-29T16:47:43;17.30;;;8.80;;
29240;SDS011;16268;49.880;8.648;2022-10-29T16:50:12;21.55;;;7.93;;
29240;SDS011;16268;49.880;8.648;2022-10-29T16:52:41;14.85;;;7.43;;
29240;SDS011;16268;49.880;8.648;2022-10-29T16:55:07;14.18;;;7.95;;
29240;SDS011;16268;49.880;8.648;2022-10-29T16:57:33;16.20;;;7.38;;
29240;SDS011;16268;49.880;8.648;2022-10-29T16:59:58;17.52;;;7.90;;
29240;SDS011;16268;49.880;8.648;2022-10-29T17:02:24;18.75;;;7.95;;
29240;SDS011;16268;49.880;8.648;2022-10-29T17:04:49;16.38;;;7.60;;
29240;SDS011;16268;49.880;8.648;2022-10-29T17:07:15;15.77;;;7.25;;
29240;SDS011;16268;49.880;8.648;2022-10-29T17:09:41;17.50;;;7.78;;
29240;SDS011;16268;49.880;8.648;2022-10-29T17:12:06;18.83;;;7.90;;
29240;SDS011;16268;49.880;8.648;2022-10-29T17:14:32;19.15;;;7.85;;
29240;SDS011;16268;49.880;8.648;2022-10-29T17:16:58;18.42;;;7.57;;
29240;SDS011;16268;49.880;8.648;2022-10-29T17:19:25;17.58;;;7.97;;
29240;SDS011;16268;49.880;8.648;2022-10-29T17:21:51;15.13;;;7.57;;
29240;SDS011;16268;49.880;8.648;2022-10-29T17:24:17;25.52;;;11.20;;
29240;SDS011;16268;49.880;8.648;2022-10-29T17:26:43;25.88;;;14.48;;
29240;SDS011;16268;49.880;8.648;2022-10-29T17:29:08;20.33;;;10.00;;
29240;SDS011;16268;49.880;8.648;2022-10-29T17:31:34;18.60;;;8.75;;